sensor_id;sensor_type;location;lat;lon;timestamp;temperature;humidity
67870;DHT22;54673;52.262;6.830;2023-07-02T00:02:21;22.10;53.60
67870;DHT22;54673;52.262;6.830;2023-07-02T00:04:47;22.00;53.40
67870;DHT22;54673;52.262;6.830;2023-07-02T00:07:13;22.00;53.50
67870;DHT22;54673;52.262;6.830;2023-07-02T00:09:40;22.00;53.50
67870;DHT22;54673;52.262;6.830;2023-07-02T00:12:06;22.10;53.50
67870;DHT22;54673;52.262;6.830;2023-07-02T00:14:32;22.10;53.50
67870;DHT22;54673;52.262;6.830;2023-07-02T00:16:58;22.10;53.40
67870;DHT22;54673;52.262;6.830;2023-07-02T00:19:23;22.10;53.50
67870;DHT22;54673;52.262;6.830;2023-07-02T00:21:49;22.10;53.40
67870;DHT22;54673;52.262;6.830;2023-07-02T00:24:14;21.70;53.20
67870;DHT22;54673;52.262;6.830;2023-07-02T00:26:41;22.10;53.40
67870;DHT22;54673;52.262;6.830;2023-07-02T00:29:07;22.00;53.50
67870;DHT22;54673;52.262;6.830;2023-07-02T00:31:34;22.00;53.50
67870;DHT22;54673;52.262;6.830;2023-07-02T00:34:01;22.00;53.50
67870;DHT22;54673;52.262;6.830;2023-07-02T00:36:27;22.00;53.70
67870;DHT22;54673;52.262;6.830;2023-07-02T00:38:52;21.90;53.60
67870;DHT22;54673;52.262;6.830;2023-07-02T00:41:18;21.90;53.60
67870;DHT22;54673;52.262;6.830;2023-07-02T00:43:43;21.90;53.60
67870;DHT22;54673;52.262;6.830;2023-07-02T00:46:19;21.90;53.60
67870;DHT22;54673;52.262;6.830;2023-07-02T00:48:55;21.90;53.70
67870;DHT22;54673;52.262;6.830;2023-07-02T00:51:26;21.90;53.80
67870;DHT22;54673;52.262;6.830;2023-07-02T00:53:55;21.90;53.80
67870;DHT22;54673;52.262;6.830;2023-07-02T00:56:21;21.80;53.80
67870;DHT22;54673;52.262;6.830;2023-07-02T00:58:49;21.80;54.00
67870;DHT22;54673;52.262;6.830;2023-07-02T01:01:17;21.80;54.20
67870;DHT22;54673;52.262;6.830;2023-07-02T01:04:04;21.80;54.40
67870;DHT22;54673;52.262;6.830;2023-07-02T01:06:31;21.80;54.60
67870;DHT22;54673;52.262;6.830;2023-07-02T01:09:02;21.80;54.60
67870;DHT22;54673;52.262;6.830;2023-07-02T01:11:32;21.80;54.70
67870;DHT22;54673;52.262;6.830;2023-07-02T01:14:04;21.80;54.60
67870;DHT22;54673;52.262;6.830;2023-07-02T01:16:31;21.80;54.70
67870;DHT22;54673;52.262;6.830;2023-07-02T01:19:00;21.80;54.80
67870;DHT22;54673;52.262;6.830;2023-07-02T01:21:30;21.90;54.80
67870;DHT22;54673;52.262;6.830;2023-07-02T01:23:57;21.90;54.90
67870;DHT22;54673;52.262;6.830;2023-07-02T01:26:30;21.90;55.00
67870;DHT22;54673;52.262;6.830;2023-07-02T01:28:59;21.90;55.00
67870;DHT22;54673;52.262;6.830;2023-07-02T01:31:24;21.90;55.10
67870;DHT22;54673;52.262;6.830;2023-07-02T01:33:51;21.90;55.10
67870;DHT22;54673;52.262;6.830;2023-07-02T01:36:17;21.90;55.20
67870;DHT22;54673;52.262;6.830;2023-07-02T01:38:42;21.90;55.30
67870;DHT22;54673;52.262;6.830;2023-07-02T01:41:08;21.90;55.40
67870;DHT22;54673;52.262;6.830;2023-07-02T01:43:33;21.90;55.60
67870;DHT22;54673;52.262;6.830;2023-07-02T01:45:59;21.90;55.50
67870;DHT22;54673;52.262;6.830;2023-07-02T01:48:27;21.80;55.50
67870;DHT22;54673;52.262;6.830;2023-07-02T01:50:52;21.80;55.60
67870;DHT22;54673;52.262;6.830;2023-07-02T01:53:18;21.80;55.50
67870;DHT22;54673;52.262;6.830;2023-07-02T01:55:44;21.80;55.40
67870;DHT22;54673;52.262;6.830;2023-07-02T01:58:09;21.80;55.40
67870;DHT22;54673;52.262;6.830;2023-07-02T02:00:35;21.80;55.40
67870;DHT22;54673;52.262;6.830;2023-07-02T02:03:01;21.80;55.30
67870;DHT22;54673;52.262;6.830;2023-07-02T02:05:27;21.80;55.30
67870;DHT22;54673;52.262;6.830;2023-07-02T02:07:52;21.80;55.20
67870;DHT22;54673;52.262;6.830;2023-07-02T02:10:18;21.80;55.20
67870;DHT22;54673;52.262;6.830;2023-07-02T02:12:43;21.80;55.20
67870;DHT22;54673;52.262;6.830;2023-07-02T02:15:09;21.80;55.20
67870;DHT22;54673;52.262;6.830;2023-07-02T02:17:36;21.90;55.20
67870;DHT22;54673;52.262;6.830;2023-07-02T02:20:02;21.80;55.10
67870;DHT22;54673;52.262;6.830;2023-07-02T02:22:31;21.80;55.10
67870;DHT22;54673;52.262;6.830;2023-07-02T02:24:56;21.80;55.00
67870;DHT22;54673;52.262;6.830;2023-07-02T02:27:22;21.80;55.90
67870;DHT22;54673;52.262;6.830;2023-07-02T02:29:47;21.80;55.00
67870;DHT22;54673;52.262;6.830;2023-07-02T02:32:13;21.80;55.00
67870;DHT22;54673;52.262;6.830;2023-07-02T02:34:40;21.70;54.80
67870;DHT22;54673;52.262;6.830;2023-07-02T02:37:05;21.70;54.90
67870;DHT22;54673;52.262;6.830;2023-07-02T02:39:31;21.80;54.90
67870;DHT22;54673;52.262;6.830;2023-07-02T02:41:56;21.70;54.90
67870;DHT22;54673;52.262;6.830;2023-07-02T02:44:22;21.70;54.90
67870;DHT22;54673;52.262;6.830;2023-07-02T02:46:47;21.70;54.90
67870;DHT22;54673;52.262;6.830;2023-07-02T02:49:13;21.70;54.80
67870;DHT22;54673;52.262;6.830;2023-07-02T02:51:39;21.70;54.80
67870;DHT22;54673;52.262;6.830;2023-07-02T02:54:05;21.70;54.90
67870;DHT22;54673;52.262;6.830;2023-07-02T02:56:31;21.70;54.90
67870;DHT22;54673;52.262;6.830;2023-07-02T02:58:57;21.60;54.90
67870;DHT22;54673;52.262;6.830;2023-07-02T03:01:22;21.60;54.90
67870;DHT22;54673;52.262;6.830;2023-07-02T03:03:48;21.70;54.90
67870;DHT22;54673;52.262;6.830;2023-07-02T03:06:14;21.60;54.70
67870;DHT22;54673;52.262;6.830;2023-07-02T03:08:40;21.60;54.70
67870;DHT22;54673;52.262;6.830;2023-07-02T03:11:06;21.70;54.80
67870;DHT22;54673;52.262;6.830;2023-07-02T03:13:31;21.70;54.80
67870;DHT22;54673;52.262;6.830;2023-07-02T03:15:57;21.60;54.70
67870;DHT22;54673;52.262;6.830;2023-07-02T03:18:22;21.70;54.60
67870;DHT22;54673;52.262;6.830;2023-07-02T03:20:48;21.60;54.60
67870;DHT22;54673;52.262;6.830;2023-07-02T03:23:13;21.60;54.50
67870;DHT22;54673;52.262;6.830;2023-07-02T03:25:39;21.60;54.50
67870;DHT22;54673;52.262;6.830;2023-07-02T03:28:04;21.70;54.60
67870;DHT22;54673;52.262;6.830;2023-07-02T03:30:30;21.70;54.60
67870;DHT22;54673;52.262;6.830;2023-07-02T03:32:57;21.70;54.50
67870;DHT22;54673;52.262;6.830;2023-07-02T03:35:22;21.60;54.40
67870;DHT22;54673;52.262;6.830;2023-07-02T03:37:48;21.60;54.40
67870;DHT22;54673;52.262;6.830;2023-07-02T03:40:13;21.60;54.50
67870;DHT22;54673;52.262;6.830;2023-07-02T03:42:39;21.60;54.30
67870;DHT22;54673;52.262;6.830;2023-07-02T03:45:05;21.60;54.20
67870;DHT22;54673;52.262;6.830;2023-07-02T03:47:30;21.60;54.10
67870;DHT22;54673;52.262;6.830;2023-07-02T03:49:56;21.60;54.10
67870;DHT22;54673;52.262;6.830;2023-07-02T03:52:22;21.60;54.90
67870;DHT22;54673;52.262;6.830;2023-07-02T03:54:47;21.60;54.00
67870;DHT22;54673;52.262;6.830;2023-07-02T03:57:13;21.50;53.90
67870;DHT22;54673;52.262;6.830;2023-07-02T03:59:38;21.60;54.00
67870;DHT22;54673;52.262;6.830;2023-07-02T04:02:04;21.60;54.00
67870;DHT22;54673;52.262;6.830;2023-07-02T04:04:30;21.60;54.00
67870;DHT22;54673;52.262;6.830;2023-07-02T04:06:55;21.60;54.00
67870;DHT22;54673;52.262;6.830;2023-07-02T04:09:21;21.60;54.00
67870;DHT22;54673;52.262;6.830;2023-07-02T04:11:46;21.60;54.00
67870;DHT22;54673;52.262;6.830;2023-07-02T04:14:12;21.60;54.00
67870;DHT22;54673;52.262;6.830;2023-07-02T04:16:38;21.60;54.00
67870;DHT22;54673;52.262;6.830;2023-07-02T04:19:03;21.60;54.00
67870;DHT22;54673;52.262;6.830;2023-07-02T04:21:29;21.60;54.00
67870;DHT22;54673;52.262;6.830;2023-07-02T04:23:55;21.70;53.90
67870;DHT22;54673;52.262;6.830;2023-07-02T04:26:21;21.60;53.90
67870;DHT22;54673;52.262;6.830;2023-07-02T04:28:46;21.60;53.70
67870;DHT22;54673;52.262;6.830;2023-07-02T04:31:12;21.60;53.80
67870;DHT22;54673;52.262;6.830;2023-07-02T04:33:38;21.60;53.70
67870;DHT22;54673;52.262;6.830;2023-07-02T04:36:04;21.60;53.60
67870;DHT22;54673;52.262;6.830;2023-07-02T04:38:30;21.60;53.60
67870;DHT22;54673;52.262;6.830;2023-07-02T04:40:55;21.60;53.50
67870;DHT22;54673;52.262;6.830;2023-07-02T04:43:27;21.50;53.30
67870;DHT22;54673;52.262;6.830;2023-07-02T04:45:55;21.50;53.30
67870;DHT22;54673;52.262;6.830;2023-07-02T04:48:20;21.50;53.90
67870;DHT22;54673;52.262;6.830;2023-07-02T04:50:46;21.50;53.30
67870;DHT22;54673;52.262;6.830;2023-07-02T04:53:11;21.50;53.10
67870;DHT22;54673;52.262;6.830;2023-07-02T04:55:37;21.50;53.10
67870;DHT22;54673;52.262;6.830;2023-07-02T04:58:02;21.50;53.00
67870;DHT22;54673;52.262;6.830;2023-07-02T05:00:28;21.40;52.80
67870;DHT22;54673;52.262;6.830;2023-07-02T05:02:54;21.50;53.00
67870;DHT22;54673;52.262;6.830;2023-07-02T05:05:19;21.40;52.80
67870;DHT22;54673;52.262;6.830;2023-07-02T05:07:45;21.50;52.80
67870;DHT22;54673;52.262;6.830;2023-07-02T05:10:10;21.50;52.80
67870;DHT22;54673;52.262;6.830;2023-07-02T05:12:36;21.50;52.80
67870;DHT22;54673;52.262;6.830;2023-07-02T05:15:02;21.50;52.70
67870;DHT22;54673;52.262;6.830;2023-07-02T05:17:27;21.50;52.60
67870;DHT22;54673;52.262;6.830;2023-07-02T05:19:53;21.50;52.50
67870;DHT22;54673;52.262;6.830;2023-07-02T05:22:19;21.50;52.40
67870;DHT22;54673;52.262;6.830;2023-07-02T05:24:45;21.50;52.40
67870;DHT22;54673;52.262;6.830;2023-07-02T05:27:11;21.40;52.10
67870;DHT22;54673;52.262;6.830;2023-07-02T05:29:37;21.50;53.20
67870;DHT22;54673;52.262;6.830;2023-07-02T05:32:03;21.50;52.40
67870;DHT22;54673;52.262;6.830;2023-07-02T05:34:28;21.50;52.10
67870;DHT22;54673;52.262;6.830;2023-07-02T05:36:54;21.40;51.90
67870;DHT22;54673;52.262;6.830;2023-07-02T05:39:19;21.40;51.90
67870;DHT22;54673;52.262;6.830;2023-07-02T05:41:47;21.40;52.00
67870;DHT22;54673;52.262;6.830;2023-07-02T05:44:12;21.30;51.80
67870;DHT22;54673;52.262;6.830;2023-07-02T05:46:38;21.30;51.50
67870;DHT22;54673;52.262;6.830;2023-07-02T05:49:04;21.30;51.70
67870;DHT22;54673;52.262;6.830;2023-07-02T05:51:31;21.40;51.60
67870;DHT22;54673;52.262;6.830;2023-07-02T05:53:57;21.30;51.10
67870;DHT22;54673;52.262;6.830;2023-07-02T05:56:22;21.30;51.20
67870;DHT22;54673;52.262;6.830;2023-07-02T05:58:48;21.20;51.00
67870;DHT22;54673;52.262;6.830;2023-07-02T06:01:15;21.20;51.00
67870;DHT22;54673;52.262;6.830;2023-07-02T06:03:40;21.10;50.90
67870;DHT22;54673;52.262;6.830;2023-07-02T06:06:07;21.10;50.60
67870;DHT22;54673;52.262;6.830;2023-07-02T06:08:33;21.10;50.80
67870;DHT22;54673;52.262;6.830;2023-07-02T06:10:58;21.10;50.70
67870;DHT22;54673;52.262;6.830;2023-07-02T06:13:24;21.20;50.60
67870;DHT22;54673;52.262;6.830;2023-07-02T06:15:49;21.20;50.60
67870;DHT22;54673;52.262;6.830;2023-07-02T06:18:15;21.20;50.50
67870;DHT22;54673;52.262;6.830;2023-07-02T06:20:42;21.20;50.20
67870;DHT22;54673;52.262;6.830;2023-07-02T06:23:08;20.60;50.00
67870;DHT22;54673;52.262;6.830;2023-07-02T06:25:34;21.20;50.30
67870;DHT22;54673;52.262;6.830;2023-07-02T06:27:59;21.20;50.10
67870;DHT22;54673;52.262;6.830;2023-07-02T06:30:25;21.10;50.10
67870;DHT22;54673;52.262;6.830;2023-07-02T06:32:52;21.20;50.10
67870;DHT22;54673;52.262;6.830;2023-07-02T06:35:18;21.20;49.80
67870;DHT22;54673;52.262;6.830;2023-07-02T06:37:44;21.20;49.90
67870;DHT22;54673;52.262;6.830;2023-07-02T06:40:10;21.30;50.00
67870;DHT22;54673;52.262;6.830;2023-07-02T06:42:35;21.20;49.60
67870;DHT22;54673;52.262;6.830;2023-07-02T06:45:02;21.30;49.80
67870;DHT22;54673;52.262;6.830;2023-07-02T06:47:27;21.30;49.90
67870;DHT22;54673;52.262;6.830;2023-07-02T06:49:53;21.30;49.80
67870;DHT22;54673;52.262;6.830;2023-07-02T06:52:18;21.20;49.40
67870;DHT22;54673;52.262;6.830;2023-07-02T06:54:45;21.20;49.50
67870;DHT22;54673;52.262;6.830;2023-07-02T06:57:12;21.30;49.60
67870;DHT22;54673;52.262;6.830;2023-07-02T06:59:37;21.20;49.40
67870;DHT22;54673;52.262;6.830;2023-07-02T07:02:03;21.10;49.20
67870;DHT22;54673;52.262;6.830;2023-07-02T07:04:29;21.10;49.40
67870;DHT22;54673;52.262;6.830;2023-07-02T07:06:54;21.10;49.30
67870;DHT22;54673;52.262;6.830;2023-07-02T07:09:23;21.00;49.30
67870;DHT22;54673;52.262;6.830;2023-07-02T07:11:48;21.10;49.40
67870;DHT22;54673;52.262;6.830;2023-07-02T07:14:14;21.00;48.90
67870;DHT22;54673;52.262;6.830;2023-07-02T07:16:40;20.90;49.00
67870;DHT22;54673;52.262;6.830;2023-07-02T07:19:06;20.90;49.10
67870;DHT22;54673;52.262;6.830;2023-07-02T07:21:33;20.80;48.90
67870;DHT22;54673;52.262;6.830;2023-07-02T07:23:59;20.80;48.80
67870;DHT22;54673;52.262;6.830;2023-07-02T07:26:24;20.80;49.10
67870;DHT22;54673;52.262;6.830;2023-07-02T07:28:50;20.90;49.00
67870;DHT22;54673;52.262;6.830;2023-07-02T07:31:16;20.90;48.80
67870;DHT22;54673;52.262;6.830;2023-07-02T07:33:41;20.90;48.60
67870;DHT22;54673;52.262;6.830;2023-07-02T07:36:07;20.80;48.20
67870;DHT22;54673;52.262;6.830;2023-07-02T07:38:32;20.80;48.50
67870;DHT22;54673;52.262;6.830;2023-07-02T07:40:58;20.80;48.20
67870;DHT22;54673;52.262;6.830;2023-07-02T07:43:24;20.80;48.20
67870;DHT22;54673;52.262;6.830;2023-07-02T07:45:49;20.70;47.80
67870;DHT22;54673;52.262;6.830;2023-07-02T07:48:15;20.80;48.00
67870;DHT22;54673;52.262;6.830;2023-07-02T07:50:40;20.80;48.20
67870;DHT22;54673;52.262;6.830;2023-07-02T07:53:06;20.80;47.40
67870;DHT22;54673;52.262;6.830;2023-07-02T07:55:32;20.80;47.20
67870;DHT22;54673;52.262;6.830;2023-07-02T07:57:57;20.80;47.10
67870;DHT22;54673;52.262;6.830;2023-07-02T08:00:23;20.80;47.00
67870;DHT22;54673;52.262;6.830;2023-07-02T08:02:49;20.80;47.10
67870;DHT22;54673;52.262;6.830;2023-07-02T08:05:17;20.80;46.90
67870;DHT22;54673;52.262;6.830;2023-07-02T08:07:43;20.80;46.70
67870;DHT22;54673;52.262;6.830;2023-07-02T08:10:09;20.80;46.40
67870;DHT22;54673;52.262;6.830;2023-07-02T08:12:35;20.80;46.40
67870;DHT22;54673;52.262;6.830;2023-07-02T08:15:00;20.80;46.10
67870;DHT22;54673;52.262;6.830;2023-07-02T08:17:26;20.70;46.00
67870;DHT22;54673;52.262;6.830;2023-07-02T08:19:51;20.70;46.20
67870;DHT22;54673;52.262;6.830;2023-07-02T08:22:17;20.80;46.30
67870;DHT22;54673;52.262;6.830;2023-07-02T08:24:43;20.90;46.10
67870;DHT22;54673;52.262;6.830;2023-07-02T08:27:08;20.90;46.10
67870;DHT22;54673;52.262;6.830;2023-07-02T08:29:35;20.90;45.90
67870;DHT22;54673;52.262;6.830;2023-07-02T08:32:01;20.90;45.60
67870;DHT22;54673;52.262;6.830;2023-07-02T08:34:27;20.80;45.60
67870;DHT22;54673;52.262;6.830;2023-07-02T08:36:52;20.80;45.80
67870;DHT22;54673;52.262;6.830;2023-07-02T08:39:18;20.80;45.90
67870;DHT22;54673;52.262;6.830;2023-07-02T08:41:47;20.80;46.00
67870;DHT22;54673;52.262;6.830;2023-07-02T08:44:14;20.90;46.00
67870;DHT22;54673;52.262;6.830;2023-07-02T08:46:41;20.80;46.10
67870;DHT22;54673;52.262;6.830;2023-07-02T08:49:09;20.90;46.10
67870;DHT22;54673;52.262;6.830;2023-07-02T08:51:36;20.90;45.60
67870;DHT22;54673;52.262;6.830;2023-07-02T08:54:02;20.80;45.00
67870;DHT22;54673;52.262;6.830;2023-07-02T08:56:28;20.80;45.10
67870;DHT22;54673;52.262;6.830;2023-07-02T08:58:54;20.90;45.10
67870;DHT22;54673;52.262;6.830;2023-07-02T09:01:20;21.10;45.40
67870;DHT22;54673;52.262;6.830;2023-07-02T09:03:45;20.90;45.30
67870;DHT22;54673;52.262;6.830;2023-07-02T09:06:12;20.90;45.50
67870;DHT22;54673;52.262;6.830;2023-07-02T09:08:37;20.90;44.60
67870;DHT22;54673;52.262;6.830;2023-07-02T09:11:07;20.90;44.10
67870;DHT22;54673;52.262;6.830;2023-07-02T09:16:31;20.90;44.00
67870;DHT22;54673;52.262;6.830;2023-07-02T09:19:05;20.90;43.90
67870;DHT22;54673;52.262;6.830;2023-07-02T09:24:16;20.80;43.20
67870;DHT22;54673;52.262;6.830;2023-07-02T09:26:46;20.80;43.30
67870;DHT22;54673;52.262;6.830;2023-07-02T09:29:13;20.80;43.20
67870;DHT22;54673;52.262;6.830;2023-07-02T09:31:46;20.90;43.10
67870;DHT22;54673;52.262;6.830;2023-07-02T09:34:12;20.90;43.20
67870;DHT22;54673;52.262;6.830;2023-07-02T09:36:38;20.90;42.90
67870;DHT22;54673;52.262;6.830;2023-07-02T09:39:11;21.00;43.10
67870;DHT22;54673;52.262;6.830;2023-07-02T09:41:38;20.90;42.80
67870;DHT22;54673;52.262;6.830;2023-07-02T09:44:05;20.90;42.80
67870;DHT22;54673;52.262;6.830;2023-07-02T09:46:31;20.90;42.80
67870;DHT22;54673;52.262;6.830;2023-07-02T09:48:58;20.90;42.40
67870;DHT22;54673;52.262;6.830;2023-07-02T09:51:24;20.90;43.10
67870;DHT22;54673;52.262;6.830;2023-07-02T09:53:51;21.00;42.50
67870;DHT22;54673;52.262;6.830;2023-07-02T09:56:17;20.90;42.20
67870;DHT22;54673;52.262;6.830;2023-07-02T09:58:44;21.00;41.90
67870;DHT22;54673;52.262;6.830;2023-07-02T10:01:10;21.00;41.60
67870;DHT22;54673;52.262;6.830;2023-07-02T10:03:35;21.00;41.60
67870;DHT22;54673;52.262;6.830;2023-07-02T10:06:05;21.00;41.60
67870;DHT22;54673;52.262;6.830;2023-07-02T10:08:31;21.00;41.60
67870;DHT22;54673;52.262;6.830;2023-07-02T10:11:13;21.00;41.60
67870;DHT22;54673;52.262;6.830;2023-07-02T10:13:39;21.00;41.60
67870;DHT22;54673;52.262;6.830;2023-07-02T10:16:05;21.00;41.60
67870;DHT22;54673;52.262;6.830;2023-07-02T10:18:32;21.00;41.60
67870;DHT22;54673;52.262;6.830;2023-07-02T10:20:58;21.10;41.50
67870;DHT22;54673;52.262;6.830;2023-07-02T10:23:36;21.00;41.40
67870;DHT22;54673;52.262;6.830;2023-07-02T10:26:15;21.10;41.70
67870;DHT22;54673;52.262;6.830;2023-07-02T10:28:42;21.10;41.70
67870;DHT22;54673;52.262;6.830;2023-07-02T10:31:26;21.20;41.70
67870;DHT22;54673;52.262;6.830;2023-07-02T10:33:52;21.10;41.40
67870;DHT22;54673;52.262;6.830;2023-07-02T10:36:21;21.20;41.50
67870;DHT22;54673;52.262;6.830;2023-07-02T10:38:49;21.10;40.70
67870;DHT22;54673;52.262;6.830;2023-07-02T10:41:29;21.10;40.70
67870;DHT22;54673;52.262;6.830;2023-07-02T10:44:05;21.10;40.40
67870;DHT22;54673;52.262;6.830;2023-07-02T10:46:31;21.10;40.40
67870;DHT22;54673;52.262;6.830;2023-07-02T10:48:57;21.10;40.60
67870;DHT22;54673;52.262;6.830;2023-07-02T10:51:23;21.10;40.70
67870;DHT22;54673;52.262;6.830;2023-07-02T10:54:01;21.10;40.30
67870;DHT22;54673;52.262;6.830;2023-07-02T10:56:28;21.10;40.50
67870;DHT22;54673;52.262;6.830;2023-07-02T10:58:54;21.10;40.50
67870;DHT22;54673;52.262;6.830;2023-07-02T11:01:27;21.20;39.90
67870;DHT22;54673;52.262;6.830;2023-07-02T11:04:05;21.20;39.80
67870;DHT22;54673;52.262;6.830;2023-07-02T11:06:32;21.20;39.80
67870;DHT22;54673;52.262;6.830;2023-07-02T11:08:59;21.20;39.60
67870;DHT22;54673;52.262;6.830;2023-07-02T11:11:25;21.10;39.10
67870;DHT22;54673;52.262;6.830;2023-07-02T11:13:52;21.10;39.30
67870;DHT22;54673;52.262;6.830;2023-07-02T11:16:23;21.00;39.30
67870;DHT22;54673;52.262;6.830;2023-07-02T11:19:05;21.10;39.30
67870;DHT22;54673;52.262;6.830;2023-07-02T11:21:32;21.10;38.90
67870;DHT22;54673;52.262;6.830;2023-07-02T11:24:02;21.10;39.20
67870;DHT22;54673;52.262;6.830;2023-07-02T11:26:39;21.20;39.00
67870;DHT22;54673;52.262;6.830;2023-07-02T11:29:10;21.20;39.00
67870;DHT22;54673;52.262;6.830;2023-07-02T11:31:36;21.30;39.10
67870;DHT22;54673;52.262;6.830;2023-07-02T11:34:14;21.30;39.10
67870;DHT22;54673;52.262;6.830;2023-07-02T11:36:40;21.30;39.10
67870;DHT22;54673;52.262;6.830;2023-07-02T11:39:06;21.30;39.20
67870;DHT22;54673;52.262;6.830;2023-07-02T11:41:43;21.30;39.20
67870;DHT22;54673;52.262;6.830;2023-07-02T11:44:09;21.30;39.10
67870;DHT22;54673;52.262;6.830;2023-07-02T11:46:35;21.30;39.10
67870;DHT22;54673;52.262;6.830;2023-07-02T11:49:01;21.30;38.80
67870;DHT22;54673;52.262;6.830;2023-07-02T11:51:27;21.30;39.80
67870;DHT22;54673;52.262;6.830;2023-07-02T11:53:53;21.30;38.50
67870;DHT22;54673;52.262;6.830;2023-07-02T11:56:19;21.30;38.50
67870;DHT22;54673;52.262;6.830;2023-07-02T11:58:44;21.30;38.60
67870;DHT22;54673;52.262;6.830;2023-07-02T12:01:10;21.40;38.20
67870;DHT22;54673;52.262;6.830;2023-07-02T12:03:35;21.30;37.90
67870;DHT22;54673;52.262;6.830;2023-07-02T12:06:01;21.30;37.50
67870;DHT22;54673;52.262;6.830;2023-07-02T12:08:27;21.30;37.40
67870;DHT22;54673;52.262;6.830;2023-07-02T12:10:52;21.20;37.60
67870;DHT22;54673;52.262;6.830;2023-07-02T12:13:18;21.30;37.60
67870;DHT22;54673;52.262;6.830;2023-07-02T12:15:43;21.30;37.30
67870;DHT22;54673;52.262;6.830;2023-07-02T12:18:09;21.30;37.90
67870;DHT22;54673;52.262;6.830;2023-07-02T12:20:35;21.30;36.60
67870;DHT22;54673;52.262;6.830;2023-07-02T12:23:01;21.30;36.40
67870;DHT22;54673;52.262;6.830;2023-07-02T12:25:27;21.20;36.40
67870;DHT22;54673;52.262;6.830;2023-07-02T12:27:53;21.30;36.80
67870;DHT22;54673;52.262;6.830;2023-07-02T12:30:18;21.30;36.40
67870;DHT22;54673;52.262;6.830;2023-07-02T12:32:44;21.40;37.00
67870;DHT22;54673;52.262;6.830;2023-07-02T12:35:11;21.40;36.90
67870;DHT22;54673;52.262;6.830;2023-07-02T12:37:46;21.50;36.70
67870;DHT22;54673;52.262;6.830;2023-07-02T12:40:12;21.40;36.50
67870;DHT22;54673;52.262;6.830;2023-07-02T12:42:38;21.40;36.20
67870;DHT22;54673;52.262;6.830;2023-07-02T12:45:05;21.40;36.10
67870;DHT22;54673;52.262;6.830;2023-07-02T12:47:31;21.30;35.70
67870;DHT22;54673;52.262;6.830;2023-07-02T12:49:56;21.30;35.60
67870;DHT22;54673;52.262;6.830;2023-07-02T12:52:22;21.30;36.40
67870;DHT22;54673;52.262;6.830;2023-07-02T12:54:47;21.40;36.50
67870;DHT22;54673;52.262;6.830;2023-07-02T12:57:13;21.50;36.50
67870;DHT22;54673;52.262;6.830;2023-07-02T12:59:38;21.50;36.60
67870;DHT22;54673;52.262;6.830;2023-07-02T13:02:04;21.60;36.40
67870;DHT22;54673;52.262;6.830;2023-07-02T13:04:30;21.50;36.50
67870;DHT22;54673;52.262;6.830;2023-07-02T13:06:56;21.50;36.20
67870;DHT22;54673;52.262;6.830;2023-07-02T13:09:21;21.50;36.30
67870;DHT22;54673;52.262;6.830;2023-07-02T13:11:47;21.50;36.40
67870;DHT22;54673;52.262;6.830;2023-07-02T13:14:12;21.50;36.40
67870;DHT22;54673;52.262;6.830;2023-07-02T13:16:38;21.50;36.10
67870;DHT22;54673;52.262;6.830;2023-07-02T13:19:04;21.40;36.20
67870;DHT22;54673;52.262;6.830;2023-07-02T13:21:30;21.40;36.50
67870;DHT22;54673;52.262;6.830;2023-07-02T13:23:55;21.50;36.50
67870;DHT22;54673;52.262;6.830;2023-07-02T13:26:21;21.50;36.20
67870;DHT22;54673;52.262;6.830;2023-07-02T13:28:46;21.50;36.50
67870;DHT22;54673;52.262;6.830;2023-07-02T13:31:14;21.50;36.40
67870;DHT22;54673;52.262;6.830;2023-07-02T13:33:40;21.50;36.40
67870;DHT22;54673;52.262;6.830;2023-07-02T13:36:05;21.50;36.00
67870;DHT22;54673;52.262;6.830;2023-07-02T13:38:31;21.50;36.20
67870;DHT22;54673;52.262;6.830;2023-07-02T13:40:57;21.60;36.10
67870;DHT22;54673;52.262;6.830;2023-07-02T13:43:23;21.60;36.00
67870;DHT22;54673;52.262;6.830;2023-07-02T13:45:49;21.60;36.40
67870;DHT22;54673;52.262;6.830;2023-07-02T13:48:14;21.60;36.00
67870;DHT22;54673;52.262;6.830;2023-07-02T13:50:40;21.50;35.90
67870;DHT22;54673;52.262;6.830;2023-07-02T13:53:05;21.50;36.40
67870;DHT22;54673;52.262;6.830;2023-07-02T13:55:31;21.50;36.20
67870;DHT22;54673;52.262;6.830;2023-07-02T13:57:57;21.50;35.80
67870;DHT22;54673;52.262;6.830;2023-07-02T14:00:23;21.50;36.00
67870;DHT22;54673;52.262;6.830;2023-07-02T14:02:49;21.60;36.10
67870;DHT22;54673;52.262;6.830;2023-07-02T14:05:15;21.60;36.10
67870;DHT22;54673;52.262;6.830;2023-07-02T14:07:40;21.60;35.80
67870;DHT22;54673;52.262;6.830;2023-07-02T14:10:06;21.60;35.70
67870;DHT22;54673;52.262;6.830;2023-07-02T14:12:32;21.60;35.70
67870;DHT22;54673;52.262;6.830;2023-07-02T14:14:58;21.60;35.70
67870;DHT22;54673;52.262;6.830;2023-07-02T14:17:23;21.60;35.90
67870;DHT22;54673;52.262;6.830;2023-07-02T14:19:49;21.60;35.40
67870;DHT22;54673;52.262;6.830;2023-07-02T14:22:15;21.50;35.20
67870;DHT22;54673;52.262;6.830;2023-07-02T14:24:40;21.50;35.50
67870;DHT22;54673;52.262;6.830;2023-07-02T14:27:06;21.60;35.60
67870;DHT22;54673;52.262;6.830;2023-07-02T14:29:32;21.70;35.80
67870;DHT22;54673;52.262;6.830;2023-07-02T14:31:58;21.80;36.70
67870;DHT22;54673;52.262;6.830;2023-07-02T14:34:23;21.80;35.20
67870;DHT22;54673;52.262;6.830;2023-07-02T14:36:49;21.70;35.10
67870;DHT22;54673;52.262;6.830;2023-07-02T14:39:15;21.70;35.00
67870;DHT22;54673;52.262;6.830;2023-07-02T14:41:40;21.70;35.00
67870;DHT22;54673;52.262;6.830;2023-07-02T14:44:06;21.80;35.30
67870;DHT22;54673;52.262;6.830;2023-07-02T14:46:32;21.80;35.30
67870;DHT22;54673;52.262;6.830;2023-07-02T14:48:58;21.90;35.30
67870;DHT22;54673;52.262;6.830;2023-07-02T14:51:23;21.80;34.90
67870;DHT22;54673;52.262;6.830;2023-07-02T14:53:50;21.80;35.00
67870;DHT22;54673;52.262;6.830;2023-07-02T14:56:15;21.80;34.70
67870;DHT22;54673;52.262;6.830;2023-07-02T14:58:41;21.80;35.00
67870;DHT22;54673;52.262;6.830;2023-07-02T15:01:07;21.90;35.10
67870;DHT22;54673;52.262;6.830;2023-07-02T15:03:32;22.00;35.10
67870;DHT22;54673;52.262;6.830;2023-07-02T15:06:13;22.10;34.80
67870;DHT22;54673;52.262;6.830;2023-07-02T15:08:39;22.00;34.40
67870;DHT22;54673;52.262;6.830;2023-07-02T15:11:05;22.00;34.40
67870;DHT22;54673;52.262;6.830;2023-07-02T15:13:31;21.90;34.40
67870;DHT22;54673;52.262;6.830;2023-07-02T15:15:56;21.80;34.60
67870;DHT22;54673;52.262;6.830;2023-07-02T15:18:22;21.90;34.60
67870;DHT22;54673;52.262;6.830;2023-07-02T15:20:51;22.00;34.80
67870;DHT22;54673;52.262;6.830;2023-07-02T15:23:19;22.00;34.70
67870;DHT22;54673;52.262;6.830;2023-07-02T15:25:54;22.10;34.80
67870;DHT22;54673;52.262;6.830;2023-07-02T15:28:20;22.20;34.80
67870;DHT22;54673;52.262;6.830;2023-07-02T15:30:50;22.20;34.50
67870;DHT22;54673;52.262;6.830;2023-07-02T15:33:16;22.20;34.50